sensor_id;sensor_type;location;lat;lon;timestamp;pressure;altitude;pressure_sealevel;temperature;humidity
56894;BME280;43392;50.078;13.704;2023-06-14T00:01:11;96832.28;;;11.61;75.62
56894;BME280;43392;50.078;13.704;2023-06-14T00:03:38;96826.66;;;11.58;75.50
56894;BME280;43392;50.078;13.704;2023-06-14T00:06:05;96834.25;;;11.51;75.49
56894;BME280;43392;50.078;13.704;2023-06-14T00:08:33;96827.00;;;11.51;75.62
56894;BME280;43392;50.078;13.704;2023-06-14T00:11:00;96830.81;;;11.50;75.90
56894;BME280;43392;50.078;13.704;2023-06-14T00:13:27;96831.63;;;11.46;75.98
56894;BME280;43392;50.078;13.704;2023-06-14T00:15:53;96824.97;;;11.43;76.10
56894;BME280;43392;50.078;13.704;2023-06-14T00:18:20;96825.53;;;11.40;76.18
56894;BME280;43392;50.078;13.704;2023-06-14T00:20:49;96831.16;;;11.39;76.17
56894;BME280;43392;50.078;13.704;2023-06-14T00:23:16;96827.16;;;11.36;76.26
56894;BME280;43392;50.078;13.704;2023-06-14T00:25:44;96825.28;;;11.37;76.33
56894;BME280;43392;50.078;13.704;2023-06-14T00:28:11;96831.69;;;11.41;76.21
56894;BME280;43392;50.078;13.704;2023-06-14T00:30:37;96838.94;;;11.40;76.38
56894;BME280;43392;50.078;13.704;2023-06-14T00:33:04;96827.97;;;11.37;76.50
56894;BME280;43392;50.078;13.704;2023-06-14T00:35:31;96832.00;;;11.34;76.60
56894;BME280;43392;50.078;13.704;2023-06-14T00:37:57;96827.53;;;11.24;76.98
56894;BME280;43392;50.078;13.704;2023-06-14T00:40:24;96820.69;;;11.13;77.52
56894;BME280;43392;50.078;13.704;2023-06-14T00:42:52;96822.59;;;11.08;77.77
56894;BME280;43392;50.078;13.704;2023-06-14T00:45:19;96824.97;;;11.09;77.59
56894;BME280;43392;50.078;13.704;2023-06-14T00:47:46;96822.56;;;11.13;77.89
56894;BME280;43392;50.078;13.704;2023-06-14T00:50:13;96818.50;;;11.15;77.75
56894;BME280;43392;50.078;13.704;2023-06-14T00:52:40;96827.31;;;11.21;77.96
56894;BME280;43392;50.078;13.704;2023-06-14T00:55:07;96829.41;;;11.24;78.08
56894;BME280;43392;50.078;13.704;2023-06-14T00:57:34;96821.38;;;11.24;77.89
56894;BME280;43392;50.078;13.704;2023-06-14T01:00:05;96821.94;;;11.21;77.87
56894;BME280;43392;50.078;13.704;2023-06-14T01:02:34;96826.81;;;11.19;77.93
56894;BME280;43392;50.078;13.704;2023-06-14T01:05:02;96820.34;;;11.20;78.06
56894;BME280;43392;50.078;13.704;2023-06-14T01:07:35;96814.16;;;11.19;78.31
56894;BME280;43392;50.078;13.704;2023-06-14T01:10:19;96823.03;;;11.20;78.15
56894;BME280;43392;50.078;13.704;2023-06-14T01:12:52;96819.53;;;11.19;78.37
56894;BME280;43392;50.078;13.704;2023-06-14T01:15:23;96831.06;;;11.20;78.81
56894;BME280;43392;50.078;13.704;2023-06-14T01:17:51;96823.31;;;11.18;78.69
56894;BME280;43392;50.078;13.704;2023-06-14T01:20:22;96824.91;;;11.19;78.57
56894;BME280;43392;50.078;13.704;2023-06-14T01:22:52;96826.25;;;11.17;78.83
56894;BME280;43392;50.078;13.704;2023-06-14T01:25:19;96824.16;;;11.14;78.92
56894;BME280;43392;50.078;13.704;2023-06-14T01:27:48;96824.72;;;11.11;79.22
56894;BME280;43392;50.078;13.704;2023-06-14T01:30:17;96821.53;;;11.09;79.37
56894;BME280;43392;50.078;13.704;2023-06-14T01:32:44;96825.31;;;11.03;79.03
56894;BME280;43392;50.078;13.704;2023-06-14T01:35:12;96815.38;;;11.03;79.40
56894;BME280;43392;50.078;13.704;2023-06-14T01:37:39;96814.59;;;11.03;79.31
56894;BME280;43392;50.078;13.704;2023-06-14T01:40:09;96814.06;;;11.01;79.34
56894;BME280;43392;50.078;13.704;2023-06-14T01:42:38;96821.59;;;10.99;79.34
56894;BME280;43392;50.078;13.704;2023-06-14T01:45:06;96816.50;;;10.97;79.70
56894;BME280;43392;50.078;13.704;2023-06-14T01:47:33;96816.50;;;10.97;79.74
56894;BME280;43392;50.078;13.704;2023-06-14T01:50:01;96815.19;;;10.95;79.83
56894;BME280;43392;50.078;13.704;2023-06-14T01:52:28;96820.53;;;10.95;79.71
56894;BME280;43392;50.078;13.704;2023-06-14T01:54:54;96816.59;;;10.87;80.13
56894;BME280;43392;50.078;13.704;2023-06-14T01:57:23;96817.50;;;10.78;80.58
56894;BME280;43392;50.078;13.704;2023-06-14T01:59:50;96819.72;;;10.65;81.05
56894;BME280;43392;50.078;13.704;2023-06-14T02:02:17;96804.72;;;10.59;81.26
56894;BME280;43392;50.078;13.704;2023-06-14T02:04:44;96816.53;;;10.58;81.13
56894;BME280;43392;50.078;13.704;2023-06-14T02:07:13;96818.50;;;10.43;81.06
56894;BME280;43392;50.078;13.704;2023-06-14T02:09:40;96819.38;;;10.33;81.75
56894;BME280;43392;50.078;13.704;2023-06-14T02:12:07;96819.94;;;10.25;82.00
56894;BME280;43392;50.078;13.704;2023-06-14T02:14:35;96820.50;;;10.22;82.20
56894;BME280;43392;50.078;13.704;2023-06-14T02:17:03;96821.84;;;10.20;82.30
56894;BME280;43392;50.078;13.704;2023-06-14T02:19:31;96829.84;;;10.25;82.08
56894;BME280;43392;50.078;13.704;2023-06-14T02:21:58;96847.06;;;10.19;82.07
56894;BME280;43392;50.078;13.704;2023-06-14T02:24:25;96844.91;;;10.11;82.47
56894;BME280;43392;50.078;13.704;2023-06-14T02:26:51;96837.41;;;10.08;82.62
56894;BME280;43392;50.078;13.704;2023-06-14T02:29:18;96840.34;;;10.11;82.03
56894;BME280;43392;50.078;13.704;2023-06-14T02:31:46;96842.53;;;10.14;81.69
56894;BME280;43392;50.078;13.704;2023-06-14T02:34:13;96840.38;;;10.16;81.36
56894;BME280;43392;50.078;13.704;2023-06-14T02:36:42;96848.41;;;10.16;81.45
56894;BME280;43392;50.078;13.704;2023-06-14T02:39:09;96844.13;;;10.15;81.53
56894;BME280;43392;50.078;13.704;2023-06-14T02:41:35;96843.03;;;10.16;81.73
56894;BME280;43392;50.078;13.704;2023-06-14T02:44:02;96848.41;;;10.16;81.72
56894;BME280;43392;50.078;13.704;2023-06-14T02:46:29;96837.41;;;10.18;81.86
56894;BME280;43392;50.078;13.704;2023-06-14T02:48:57;96852.16;;;10.15;82.16
56894;BME280;43392;50.078;13.704;2023-06-14T02:51:23;96845.22;;;10.14;82.01
56894;BME280;43392;50.078;13.704;2023-06-14T02:53:50;96853.75;;;10.11;82.06
56894;BME280;43392;50.078;13.704;2023-06-14T02:56:17;96851.38;;;10.10;82.36
56894;BME280;43392;50.078;13.704;2023-06-14T02:58:44;96858.06;;;10.07;82.28
56894;BME280;43392;50.078;13.704;2023-06-14T03:01:11;96855.94;;;10.04;82.21
56894;BME280;43392;50.078;13.704;2023-06-14T03:03:39;96861.81;;;10.01;82.38
56894;BME280;43392;50.078;13.704;2023-06-14T03:06:07;96854.63;;;9.96;82.31
56894;BME280;43392;50.078;13.704;2023-06-14T03:08:35;96862.94;;;9.95;82.26
56894;BME280;43392;50.078;13.704;2023-06-14T03:11:04;96864.28;;;9.92;82.69
56894;BME280;43392;50.078;13.704;2023-06-14T03:13:31;96863.19;;;9.98;82.38
56894;BME280;43392;50.078;13.704;2023-06-14T03:15:58;96857.53;;;10.05;82.00
56894;BME280;43392;50.078;13.704;2023-06-14T03:18:27;96864.47;;;10.11;81.78
56894;BME280;43392;50.078;13.704;2023-06-14T03:20:54;96867.69;;;10.18;81.98
56894;BME280;43392;50.078;13.704;2023-06-14T03:23:23;96866.59;;;10.24;81.70
56894;BME280;43392;50.078;13.704;2023-06-14T03:25:50;96862.56;;;10.32;81.29
56894;BME280;43392;50.078;13.704;2023-06-14T03:28:17;96876.69;;;10.37;81.53
56894;BME280;43392;50.078;13.704;2023-06-14T03:30:43;96869.69;;;10.46;81.09
56894;BME280;43392;50.078;13.704;2023-06-14T03:33:10;96872.09;;;10.53;80.80
56894;BME280;43392;50.078;13.704;2023-06-14T03:35:37;96870.97;;;10.59;80.55
56894;BME280;43392;50.078;13.704;2023-06-14T03:38:04;96859.69;;;10.62;80.46
56894;BME280;43392;50.078;13.704;2023-06-14T03:40:32;96859.13;;;10.65;80.23
56894;BME280;43392;50.078;13.704;2023-06-14T03:42:58;96870.91;;;10.69;80.36
56894;BME280;43392;50.078;13.704;2023-06-14T03:45:25;96870.88;;;10.74;80.28
56894;BME280;43392;50.078;13.704;2023-06-14T03:47:51;96867.88;;;10.81;80.13
56894;BME280;43392;50.078;13.704;2023-06-14T03:50:18;96872.97;;;10.82;79.78
56894;BME280;43392;50.078;13.704;2023-06-14T03:52:45;96868.97;;;10.80;79.56
56894;BME280;43392;50.078;13.704;2023-06-14T03:55:12;96873.56;;;10.74;79.63
56894;BME280;43392;50.078;13.704;2023-06-14T03:57:40;96877.59;;;10.72;79.90
56894;BME280;43392;50.078;13.704;2023-06-14T04:00:08;96876.50;;;10.78;80.18
56894;BME280;43392;50.078;13.704;2023-06-14T04:02:36;96865.19;;;10.81;79.90
56894;BME280;43392;50.078;13.704;2023-06-14T04:05:03;96876.66;;;10.91;79.56
56894;BME280;43392;50.078;13.704;2023-06-14T04:07:30;96870.97;;;10.98;79.67
56894;BME280;43392;50.078;13.704;2023-06-14T04:09:57;96889.72;;;11.03;79.49
56894;BME280;43392;50.078;13.704;2023-06-14T04:12:24;96883.34;;;10.94;79.45
56894;BME280;43392;50.078;13.704;2023-06-14T04:14:52;96883.94;;;10.86;79.91
56894;BME280;43392;50.078;13.704;2023-06-14T04:17:18;96885.28;;;10.83;80.25
56894;BME280;43392;50.078;13.704;2023-06-14T04:19:45;96885.00;;;10.90;80.21
56894;BME280;43392;50.078;13.704;2023-06-14T04:22:12;96890.38;;;10.90;80.15
56894;BME280;43392;50.078;13.704;2023-06-14T04:24:39;96884.47;;;10.83;80.51
56894;BME280;43392;50.078;13.704;2023-06-14T04:27:07;96890.16;;;10.76;81.16
56894;BME280;43392;50.078;13.704;2023-06-14T04:29:34;96894.72;;;10.76;81.45
56894;BME280;43392;50.078;13.704;2023-06-14T04:32:02;96890.09;;;10.86;81.22
56894;BME280;43392;50.078;13.704;2023-06-14T04:34:31;96887.63;;;10.95;80.97
56894;BME280;43392;50.078;13.704;2023-06-14T04:36:59;96883.88;;;10.96;80.88
56894;BME280;43392;50.078;13.704;2023-06-14T04:39:26;96898.88;;;11.02;81.15
56894;BME280;43392;50.078;13.704;2023-06-14T04:41:53;96890.53;;;11.03;81.02
56894;BME280;43392;50.078;13.704;2023-06-14T04:44:23;96888.91;;;11.02;81.36
56894;BME280;43392;50.078;13.704;2023-06-14T04:46:55;96883.75;;;11.11;81.65
56894;BME280;43392;50.078;13.704;2023-06-14T04:49:23;96896.59;;;11.19;80.79
56894;BME280;43392;50.078;13.704;2023-06-14T04:51:52;96902.47;;;11.21;81.06
56894;BME280;43392;50.078;13.704;2023-06-14T04:54:23;96905.66;;;11.23;80.45
56894;BME280;43392;50.078;13.704;2023-06-14T04:56:50;96902.47;;;11.21;80.79
56894;BME280;43392;50.078;13.704;2023-06-14T04:59:18;96895.50;;;11.20;81.05
56894;BME280;43392;50.078;13.704;2023-06-14T05:01:45;96900.31;;;11.23;80.87
56894;BME280;43392;50.078;13.704;2023-06-14T05:04:13;96908.94;;;11.15;80.68
56894;BME280;43392;50.078;13.704;2023-06-14T05:06:41;96913.84;;;11.08;80.98
56894;BME280;43392;50.078;13.704;2023-06-14T05:09:10;96911.31;;;10.83;82.29
56894;BME280;43392;50.078;13.704;2023-06-14T05:11:36;96909.16;;;10.85;82.72
56894;BME280;43392;50.078;13.704;2023-06-14T05:14:03;96909.13;;;10.90;82.38
56894;BME280;43392;50.078;13.704;2023-06-14T05:16:31;96901.88;;;10.90;82.73
56894;BME280;43392;50.078;13.704;2023-06-14T05:18:57;96909.41;;;10.88;83.41
56894;BME280;43392;50.078;13.704;2023-06-14T05:21:24;96912.94;;;10.79;82.98
56894;BME280;43392;50.078;13.704;2023-06-14T05:23:52;96913.38;;;10.96;83.02
56894;BME280;43392;50.078;13.704;2023-06-14T05:26:19;96915.13;;;11.15;82.24
56894;BME280;43392;50.078;13.704;2023-06-14T05:28:46;96918.25;;;11.27;81.35
56894;BME280;43392;50.078;13.704;2023-06-14T05:31:12;96913.63;;;11.38;80.83
56894;BME280;43392;50.078;13.704;2023-06-14T05:33:39;96918.88;;;11.48;80.84
56894;BME280;43392;50.078;13.704;2023-06-14T05:36:06;96920.97;;;11.56;80.99
56894;BME280;43392;50.078;13.704;2023-06-14T05:38:32;96921.94;;;11.65;80.50
56894;BME280;43392;50.078;13.704;2023-06-14T05:41:00;96932.38;;;11.77;79.20
56894;BME280;43392;50.078;13.704;2023-06-14T05:43:27;96932.19;;;11.92;78.77
56894;BME280;43392;50.078;13.704;2023-06-14T05:45:53;96933.72;;;12.03;77.88
56894;BME280;43392;50.078;13.704;2023-06-14T05:48:20;96930.63;;;12.15;77.96
56894;BME280;43392;50.078;13.704;2023-06-14T05:50:47;96937.88;;;12.14;77.75
56894;BME280;43392;50.078;13.704;2023-06-14T05:53:13;96943.75;;;12.16;77.68
56894;BME280;43392;50.078;13.704;2023-06-14T05:55:40;96941.03;;;12.21;77.49
56894;BME280;43392;50.078;13.704;2023-06-14T05:58:08;96935.59;;;12.26;77.62
56894;BME280;43392;50.078;13.704;2023-06-14T06:00:36;96942.19;;;12.39;77.09
56894;BME280;43392;50.078;13.704;2023-06-14T06:03:02;96939.38;;;12.49;76.63
56894;BME280;43392;50.078;13.704;2023-06-14T06:05:30;96937.63;;;12.58;76.14
56894;BME280;43392;50.078;13.704;2023-06-14T06:07:56;96934.31;;;12.66;76.08
56894;BME280;43392;50.078;13.704;2023-06-14T06:10:23;96932.06;;;12.73;76.21
56894;BME280;43392;50.078;13.704;2023-06-14T06:12:50;96936.22;;;12.84;75.76
56894;BME280;43392;50.078;13.704;2023-06-14T06:15:18;96936.66;;;12.91;75.41
56894;BME280;43392;50.078;13.704;2023-06-14T06:17:45;96943.06;;;12.95;74.79
56894;BME280;43392;50.078;13.704;2023-06-14T06:20:12;96943.00;;;13.00;74.95
56894;BME280;43392;50.078;13.704;2023-06-14T06:22:38;96943.28;;;12.99;74.30
56894;BME280;43392;50.078;13.704;2023-06-14T06:25:06;96944.06;;;12.99;74.67
56894;BME280;43392;50.078;13.704;2023-06-14T06:27:33;96934.38;;;12.98;74.24
56894;BME280;43392;50.078;13.704;2023-06-14T06:30:01;96949.78;;;13.16;73.81
56894;BME280;43392;50.078;13.704;2023-06-14T06:32:29;96955.59;;;13.23;73.89
56894;BME280;43392;50.078;13.704;2023-06-14T06:34:55;96962.22;;;13.31;74.27
56894;BME280;43392;50.078;13.704;2023-06-14T06:37:22;96966.88;;;13.44;73.93
56894;BME280;43392;50.078;13.704;2023-06-14T06:39:49;96968.63;;;13.54;73.79
56894;BME280;43392;50.078;13.704;2023-06-14T06:42:15;96977.91;;;13.61;72.97
56894;BME280;43392;50.078;13.704;2023-06-14T06:44:42;96968.34;;;13.69;72.73
56894;BME280;43392;50.078;13.704;2023-06-14T06:47:08;96964.19;;;13.76;72.56
56894;BME280;43392;50.078;13.704;2023-06-14T06:49:37;96967.91;;;13.80;72.74
56894;BME280;43392;50.078;13.704;2023-06-14T06:52:05;96962.72;;;13.84;71.95
56894;BME280;43392;50.078;13.704;2023-06-14T06:54:32;96965.91;;;13.86;72.32
56894;BME280;43392;50.078;13.704;2023-06-14T06:57:00;96961.53;;;13.90;71.82
56894;BME280;43392;50.078;13.704;2023-06-14T06:59:27;96969.31;;;13.91;71.52
56894;BME280;43392;50.078;13.704;2023-06-14T07:01:53;96976.44;;;14.01;71.16
56894;BME280;43392;50.078;13.704;2023-06-14T07:04:20;96971.75;;;14.07;70.74
56894;BME280;43392;50.078;13.704;2023-06-14T07:06:48;96975.88;;;14.18;70.73
56894;BME280;43392;50.078;13.704;2023-06-14T07:09:15;96978.06;;;14.29;70.72
56894;BME280;43392;50.078;13.704;2023-06-14T07:11:43;96984.50;;;14.47;70.93
56894;BME280;43392;50.078;13.704;2023-06-14T07:14:10;96975.41;;;14.56;69.79
56894;BME280;43392;50.078;13.704;2023-06-14T07:16:37;96980.13;;;14.65;68.52
56894;BME280;43392;50.078;13.704;2023-06-14T07:19:04;96984.94;;;14.68;68.81
56894;BME280;43392;50.078;13.704;2023-06-14T07:21:30;96982.72;;;14.70;67.68
56894;BME280;43392;50.078;13.704;2023-06-14T07:23:58;96984.31;;;14.71;67.52
56894;BME280;43392;50.078;13.704;2023-06-14T07:26:25;96987.50;;;14.73;67.17
56894;BME280;43392;50.078;13.704;2023-06-14T07:28:52;96987.94;;;14.80;67.41
56894;BME280;43392;50.078;13.704;2023-06-14T07:31:19;96997.00;;;14.84;66.63
56894;BME280;43392;50.078;13.704;2023-06-14T07:33:46;96992.00;;;14.91;66.87
56894;BME280;43392;50.078;13.704;2023-06-14T07:36:12;97000.50;;;14.98;66.56
56894;BME280;43392;50.078;13.704;2023-06-14T07:38:39;96992.50;;;15.06;67.05
56894;BME280;43392;50.078;13.704;2023-06-14T07:41:07;96997.97;;;15.15;65.46
56894;BME280;43392;50.078;13.704;2023-06-14T07:43:34;96999.97;;;15.23;66.12
56894;BME280;43392;50.078;13.704;2023-06-14T07:46:01;97006.94;;;15.24;65.28
56894;BME280;43392;50.078;13.704;2023-06-14T07:48:28;96995.84;;;15.25;64.52
56894;BME280;43392;50.078;13.704;2023-06-14T07:50:55;96992.78;;;15.18;64.38
56894;BME280;43392;50.078;13.704;2023-06-14T07:53:21;96986.19;;;15.11;65.17
56894;BME280;43392;50.078;13.704;2023-06-14T07:55:48;96992.03;;;15.26;64.72
56894;BME280;43392;50.078;13.704;2023-06-14T07:58:17;96993.00;;;15.44;65.45
56894;BME280;43392;50.078;13.704;2023-06-14T08:00:43;96986.47;;;15.59;65.30
56894;BME280;43392;50.078;13.704;2023-06-14T08:03:11;96998.34;;;15.71;63.61
56894;BME280;43392;50.078;13.704;2023-06-14T08:05:38;96994.88;;;15.79;63.32
56894;BME280;43392;50.078;13.704;2023-06-14T08:08:04;97004.78;;;15.84;63.15
56894;BME280;43392;50.078;13.704;2023-06-14T08:10:31;97002.25;;;15.87;62.99
56894;BME280;43392;50.078;13.704;2023-06-14T08:12:58;96997.81;;;15.91;63.05
56894;BME280;43392;50.078;13.704;2023-06-14T08:15:26;97006.94;;;15.96;62.10
56894;BME280;43392;50.078;13.704;2023-06-14T08:17:52;97003.09;;;15.97;61.99
56894;BME280;43392;50.078;13.704;2023-06-14T08:20:19;97009.00;;;15.99;61.35
56894;BME280;43392;50.078;13.704;2023-06-14T08:22:45;97005.81;;;15.97;61.90
56894;BME280;43392;50.078;13.704;2023-06-14T08:25:13;97003.06;;;16.10;61.84
56894;BME280;43392;50.078;13.704;2023-06-14T08:27:40;97008.38;;;16.24;61.17
56894;BME280;43392;50.078;13.704;2023-06-14T08:30:08;97007.63;;;16.32;61.14
56894;BME280;43392;50.078;13.704;2023-06-14T08:32:36;96998.31;;;16.46;61.43
56894;BME280;43392;50.078;13.704;2023-06-14T08:35:03;96998.72;;;16.62;60.33
56894;BME280;43392;50.078;13.704;2023-06-14T08:37:31;96998.47;;;16.81;59.64
56894;BME280;43392;50.078;13.704;2023-06-14T08:39:58;96999.31;;;16.98;57.28
56894;BME280;43392;50.078;13.704;2023-06-14T08:42:25;97003.47;;;17.13;57.48
56894;BME280;43392;50.078;13.704;2023-06-14T08:44:52;97004.78;;;17.24;56.90
56894;BME280;43392;50.078;13.704;2023-06-14T08:47:19;97006.53;;;17.29;56.16
56894;BME280;43392;50.078;13.704;2023-06-14T08:49:47;97010.47;;;17.05;56.21
56894;BME280;43392;50.078;13.704;2023-06-14T08:52:16;97006.47;;;16.86;56.31
56894;BME280;43392;50.078;13.704;2023-06-14T08:54:46;97009.72;;;16.66;57.11
56894;BME280;43392;50.078;13.704;2023-06-14T08:57:14;97010.31;;;16.54;56.52
56894;BME280;43392;50.078;13.704;2023-06-14T08:59:46;97007.84;;;16.75;56.00
56894;BME280;43392;50.078;13.704;2023-06-14T09:02:14;97015.56;;;16.98;55.93
56894;BME280;43392;50.078;13.704;2023-06-14T09:04:43;97012.13;;;17.23;56.37
56894;BME280;43392;50.078;13.704;2023-06-14T09:07:11;97012.47;;;17.48;55.44
56894;BME280;43392;50.078;13.704;2023-06-14T09:09:39;97011.69;;;17.64;54.47
56894;BME280;43392;50.078;13.704;2023-06-14T09:12:07;97013.94;;;17.79;54.34
56894;BME280;43392;50.078;13.704;2023-06-14T09:14:36;97014.72;;;17.88;53.88
56894;BME280;43392;50.078;13.704;2023-06-14T09:17:05;97010.41;;;17.87;54.38
56894;BME280;43392;50.078;13.704;2023-06-14T09:19:33;97012.97;;;18.01;53.72
56894;BME280;43392;50.078;13.704;2023-06-14T09:22:00;97017.09;;;18.16;52.36
56894;BME280;43392;50.078;13.704;2023-06-14T09:24:28;97015.31;;;18.28;52.23
56894;BME280;43392;50.078;13.704;2023-06-14T09:26:54;97019.63;;;18.21;53.17
56894;BME280;43392;50.078;13.704;2023-06-14T09:29:22;97019.81;;;18.07;54.00
56894;BME280;43392;50.078;13.704;2023-06-14T09:31:49;97017.44;;;17.97;53.57
56894;BME280;43392;50.078;13.704;2023-06-14T09:34:16;97026.06;;;17.99;53.32
56894;BME280;43392;50.078;13.704;2023-06-14T09:36:43;97022.88;;;17.71;52.90
56894;BME280;43392;50.078;13.704;2023-06-14T09:39:10;97026.22;;;17.77;53.30
56894;BME280;43392;50.078;13.704;2023-06-14T09:41:39;97027.66;;;17.92;52.54
56894;BME280;43392;50.078;13.704;2023-06-14T09:44:08;97019.66;;;18.04;52.33
56894;BME280;43392;50.078;13.704;2023-06-14T09:46:36;97022.00;;;18.22;52.40
56894;BME280;43392;50.078;13.704;2023-06-14T09:49:04;97027.75;;;18.38;51.11
56894;BME280;43392;50.078;13.704;2023-06-14T09:51:31;97018.00;;;18.37;50.17
56894;BME280;43392;50.078;13.704;2023-06-14T09:53:59;97015.59;;;18.52;50.90
56894;BME280;43392;50.078;13.704;2023-06-14T09:56:27;97012.44;;;18.33;51.66
56894;BME280;43392;50.078;13.704;2023-06-14T09:58:57;97012.59;;;18.28;51.42
56894;BME280;43392;50.078;13.704;2023-06-14T10:01:25;97008.75;;;18.29;51.79
56894;BME280;43392;50.078;13.704;2023-06-14T10:03:55;97021.38;;;18.17;52.02
56894;BME280;43392;50.078;13.704;2023-06-14T10:06:26;97011.22;;;17.97;51.14
56894;BME280;43392;50.078;13.704;2023-06-14T10:08:56;97022.88;;;17.71;51.37
56894;BME280;43392;50.078;13.704;2023-06-14T10:11:25;97007.38;;;17.63;52.59
56894;BME280;43392;50.078;13.704;2023-06-14T10:13:52;97005.66;;;17.67;52.46
56894;BME280;43392;50.078;13.704;2023-06-14T10:16:24;97011.84;;;17.76;52.98
56894;BME280;43392;50.078;13.704;2023-06-14T10:19:00;97019.53;;;17.74;52.15
56894;BME280;43392;50.078;13.704;2023-06-14T10:21:33;97008.34;;;17.67;51.88
56894;BME280;43392;50.078;13.704;2023-06-14T10:24:06;97015.22;;;17.65;52.53
56894;BME280;43392;50.078;13.704;2023-06-14T10:26:33;97013.78;;;17.67;52.78
56894;BME280;43392;50.078;13.704;2023-06-14T10:29:01;97007.88;;;17.65;52.67
56894;BME280;43392;50.078;13.704;2023-06-14T10:31:41;97008.03;;;17.69;52.55
56894;BME280;43392;50.078;13.704;2023-06-14T10:34:08;97003.59;;;17.73;51.61
56894;BME280;43392;50.078;13.704;2023-06-14T10:36:35;97006.13;;;17.69;50.74
56894;BME280;43392;50.078;13.704;2023-06-14T10:39:07;97004.81;;;17.75;51.36
56894;BME280;43392;50.078;13.704;2023-06-14T10:41:36;97002.44;;;17.91;51.80
56894;BME280;43392;50.078;13.704;2023-06-14T10:44:31;97000.03;;;18.07;51.04
56894;BME280;43392;50.078;13.704;2023-06-14T10:47:00;96995.03;;;18.17;50.70
56894;BME280;43392;50.078;13.704;2023-06-14T10:49:41;96991.06;;;18.23;50.39
56894;BME280;43392;50.078;13.704;2023-06-14T10:52:09;96989.56;;;18.43;50.10
56894;BME280;43392;50.078;13.704;2023-06-14T10:54:56;96989.06;;;18.49;50.36
56894;BME280;43392;50.078;13.704;2023-06-14T10:57:25;96990.84;;;18.37;50.00
56894;BME280;43392;50.078;13.704;2023-06-14T10:59:54;96992.94;;;18.31;50.23
56894;BME280;43392;50.078;13.704;2023-06-14T11:05:28;96998.81;;;18.50;49.27
56894;BME280;43392;50.078;13.704;2023-06-14T11:08:10;96989.81;;;18.67;48.98
56894;BME280;43392;50.078;13.704;2023-06-14T11:10:44;96986.75;;;18.69;47.35
56894;BME280;43392;50.078;13.704;2023-06-14T11:13:11;96985.84;;;18.94;47.77
56894;BME280;43392;50.078;13.704;2023-06-14T11:15:38;96981.56;;;19.13;46.43
56894;BME280;43392;50.078;13.704;2023-06-14T11:18:11;96989.59;;;19.31;46.17
56894;BME280;43392;50.078;13.704;2023-06-14T11:20:40;96983.69;;;19.08;45.99
56894;BME280;43392;50.078;13.704;2023-06-14T11:23:06;96989.88;;;18.88;46.18
56894;BME280;43392;50.078;13.704;2023-06-14T11:25:33;96987.69;;;18.73;46.76
56894;BME280;43392;50.078;13.704;2023-06-14T11:28:00;96981.69;;;18.59;45.90
56894;BME280;43392;50.078;13.704;2023-06-14T11:30:26;96975.81;;;18.39;46.16
56894;BME280;43392;50.078;13.704;2023-06-14T11:32:54;96978.09;;;18.29;47.47
56894;BME280;43392;50.078;13.704;2023-06-14T11:35:23;96983.84;;;18.27;47.24
56894;BME280;43392;50.078;13.704;2023-06-14T11:37:52;96982.25;;;18.26;47.02
56894;BME280;43392;50.078;13.704;2023-06-14T11:40:19;96976.50;;;18.28;46.70
56894;BME280;43392;50.078;13.704;2023-06-14T11:42:45;96976.69;;;18.23;45.13
56894;BME280;43392;50.078;13.704;2023-06-14T11:45:12;96978.13;;;18.20;45.68
56894;BME280;43392;50.078;13.704;2023-06-14T11:47:39;96973.16;;;18.22;44.93
56894;BME280;43392;50.078;13.704;2023-06-14T11:50:07;96975.41;;;18.20;45.65
56894;BME280;43392;50.078;13.704;2023-06-14T11:52:36;96977.16;;;18.25;45.95
56894;BME280;43392;50.078;13.704;2023-06-14T11:55:03;96978.59;;;18.22;47.04
56894;BME280;43392;50.078;13.704;2023-06-14T11:57:33;96980.03;;;18.20;48.04
56894;BME280;43392;50.078;13.704;2023-06-14T12:00:03;96976.69;;;18.14;48.09
56894;BME280;43392;50.078;13.704;2023-06-14T12:02:33;96981.97;;;18.11;47.83
56894;BME280;43392;50.078;13.704;2023-06-14T12:05:04;96975.28;;;18.08;48.79
56894;BME280;43392;50.078;13.704;2023-06-14T12:07:33;96980.66;;;18.17;48.92
56894;BME280;43392;50.078;13.704;2023-06-14T12:10:08;96972.84;;;18.24;48.61
56894;BME280;43392;50.078;13.704;2023-06-14T12:12:37;96976.34;;;18.24;47.62
56894;BME280;43392;50.078;13.704;2023-06-14T12:15:05;96974.72;;;18.32;47.91
56894;BME280;43392;50.078;13.704;2023-06-14T12:17:33;96970.06;;;18.41;47.78
56894;BME280;43392;50.078;13.704;2023-06-14T12:20:05;96978.06;;;18.46;46.62
56894;BME280;43392;50.078;13.704;2023-06-14T12:22:36;96970.41;;;18.48;46.79
56894;BME280;43392;50.078;13.704;2023-06-14T12:25:03;96972.28;;;18.56;47.13
56894;BME280;43392;50.078;13.704;2023-06-14T12:27:31;96976.72;;;18.61;45.79
56894;BME280;43392;50.078;13.704;2023-06-14T12:29:59;96975.09;;;18.68;45.38
56894;BME280;43392;50.078;13.704;2023-06-14T12:32:26;96979.91;;;18.63;42.76
56894;BME280;43392;50.078;13.704;2023-06-14T12:34:52;96980.41;;;18.65;43.40
56894;BME280;43392;50.078;13.704;2023-06-14T12:37:19;96978.16;;;18.67;43.88
56894;BME280;43392;50.078;13.704;2023-06-14T12:39:45;96980.22;;;18.70;42.79
56894;BME280;43392;50.078;13.704;2023-06-14T12:42:12;96973.34;;;18.72;43.29
56894;BME280;43392;50.078;13.704;2023-06-14T12:44:41;96975.06;;;18.77;42.71
56894;BME280;43392;50.078;13.704;2023-06-14T12:47:08;96977.72;;;18.85;43.94
56894;BME280;43392;50.078;13.704;2023-06-14T12:49:34;96968.13;;;18.88;44.00
56894;BME280;43392;50.078;13.704;2023-06-14T12:52:01;96966.16;;;18.97;44.44
56894;BME280;43392;50.078;13.704;2023-06-14T12:54:27;96971.44;;;19.23;43.76
56894;BME280;43392;50.078;13.704;2023-06-14T12:56:54;96961.06;;;19.45;43.26